sensor_id;sensor_type;location;lat;lon;timestamp;P1;durP1;ratioP1;P2;durP2;ratioP2
78015;SDS011;67223;51.102;5.882;2023-08-20T00:00:10;2.67;;;1.95;;
78015;SDS011;67223;51.102;5.882;2023-08-20T00:02:37;1.58;;;1.48;;
78015;SDS011;67223;51.102;5.882;2023-08-20T00:05:06;2.47;;;1.95;;
78015;SDS011;67223;51.102;5.882;2023-08-20T00:07:32;3.03;;;2.60;;
78015;SDS011;67223;51.102;5.882;2023-08-20T00:09:58;3.05;;;1.63;;
78015;SDS011;67223;51.102;5.882;2023-08-20T00:12:24;2.13;;;1.95;;
78015;SDS011;67223;51.102;5.882;2023-08-20T00:14:57;6.27;;;2.90;;
78015;SDS011;67223;51.102;5.882;2023-08-20T00:17:34;2.95;;;2.15;;
78015;SDS011;67223;51.102;5.882;2023-08-20T00:20:02;1.90;;;1.80;;
78015;SDS011;67223;51.102;5.882;2023-08-20T00:22:34;3.72;;;2.38;;
78015;SDS011;67223;51.102;5.882;2023-08-20T00:25:01;1.95;;;1.85;;
78015;SDS011;67223;51.102;5.882;2023-08-20T00:27:28;2.47;;;1.70;;
78015;SDS011;67223;51.102;5.882;2023-08-20T00:29:54;4.20;;;2.35;;
78015;SDS011;67223;51.102;5.882;2023-08-20T00:32:19;1.53;;;1.43;;
78015;SDS011;67223;51.102;5.882;2023-08-20T00:34:45;2.85;;;1.75;;
78015;SDS011;67223;51.102;5.882;2023-08-20T00:37:16;3.70;;;1.60;;
78015;SDS011;67223;51.102;5.882;2023-08-20T00:39:41;8.45;;;2.70;;
78015;SDS011;67223;51.102;5.882;2023-08-20T00:42:07;2.37;;;2.03;;
78015;SDS011;67223;51.102;5.882;2023-08-20T00:44:33;2.60;;;2.40;;
78015;SDS011;67223;51.102;5.882;2023-08-20T00:46:59;12.40;;;2.47;;
78015;SDS011;67223;51.102;5.882;2023-08-20T00:49:26;8.67;;;3.10;;
78015;SDS011;67223;51.102;5.882;2023-08-20T00:51:52;5.13;;;2.13;;
78015;SDS011;67223;51.102;5.882;2023-08-20T00:54:21;3.05;;;1.98;;
78015;SDS011;67223;51.102;5.882;2023-08-20T00:56:47;3.08;;;2.28;;
78015;SDS011;67223;51.102;5.882;2023-08-20T00:59:16;2.57;;;2.37;;
78015;SDS011;67223;51.102;5.882;2023-08-20T01:01:42;2.25;;;2.05;;
78015;SDS011;67223;51.102;5.882;2023-08-20T01:04:08;2.95;;;2.58;;
78015;SDS011;67223;51.102;5.882;2023-08-20T01:09:09;5.07;;;2.17;;
78015;SDS011;67223;51.102;5.882;2023-08-20T01:11:59;7.22;;;2.33;;
78015;SDS011;67223;51.102;5.882;2023-08-20T01:14:28;2.70;;;2.42;;
78015;SDS011;67223;51.102;5.882;2023-08-20T01:16:54;2.92;;;2.25;;
78015;SDS011;67223;51.102;5.882;2023-08-20T01:19:25;2.70;;;1.77;;
78015;SDS011;67223;51.102;5.882;2023-08-20T01:24:47;10.88;;;2.55;;
78015;SDS011;67223;51.102;5.882;2023-08-20T01:27:26;1.55;;;1.45;;
78015;SDS011;67223;51.102;5.882;2023-08-20T01:30:06;7.40;;;3.05;;
78015;SDS011;67223;51.102;5.882;2023-08-20T01:32:33;2.07;;;1.90;;
78015;SDS011;67223;51.102;5.882;2023-08-20T01:34:59;5.45;;;2.78;;
78015;SDS011;67223;51.102;5.882;2023-08-20T01:37:25;3.77;;;2.63;;
78015;SDS011;67223;51.102;5.882;2023-08-20T01:39:51;4.40;;;2.37;;
78015;SDS011;67223;51.102;5.882;2023-08-20T01:42:17;9.40;;;2.72;;
78015;SDS011;67223;51.102;5.882;2023-08-20T01:44:43;1.80;;;1.70;;
78015;SDS011;67223;51.102;5.882;2023-08-20T01:47:09;3.35;;;3.05;;
78015;SDS011;67223;51.102;5.882;2023-08-20T01:49:34;2.40;;;2.20;;
78015;SDS011;67223;51.102;5.882;2023-08-20T01:52:03;3.70;;;3.07;;
78015;SDS011;67223;51.102;5.882;2023-08-20T01:54:29;3.00;;;2.42;;
78015;SDS011;67223;51.102;5.882;2023-08-20T01:57:01;3.53;;;2.30;;
78015;SDS011;67223;51.102;5.882;2023-08-20T01:59:27;4.68;;;2.65;;
78015;SDS011;67223;51.102;5.882;2023-08-20T02:01:53;3.03;;;2.63;;
78015;SDS011;67223;51.102;5.882;2023-08-20T02:04:18;2.80;;;2.42;;
78015;SDS011;67223;51.102;5.882;2023-08-20T02:06:44;5.77;;;3.60;;
78015;SDS011;67223;51.102;5.882;2023-08-20T02:09:10;4.32;;;2.95;;
78015;SDS011;67223;51.102;5.882;2023-08-20T02:11:37;3.47;;;2.58;;
78015;SDS011;67223;51.102;5.882;2023-08-20T02:14:11;4.10;;;3.00;;
78015;SDS011;67223;51.102;5.882;2023-08-20T02:16:39;3.35;;;2.28;;
78015;SDS011;67223;51.102;5.882;2023-08-20T02:19:05;3.17;;;1.80;;
78015;SDS011;67223;51.102;5.882;2023-08-20T02:21:31;2.95;;;2.55;;
78015;SDS011;67223;51.102;5.882;2023-08-20T02:24:03;2.78;;;2.58;;
78015;SDS011;67223;51.102;5.882;2023-08-20T02:26:28;5.60;;;2.97;;
78015;SDS011;67223;51.102;5.882;2023-08-20T02:28:54;8.63;;;4.43;;
78015;SDS011;67223;51.102;5.882;2023-08-20T02:31:20;4.33;;;2.37;;
78015;SDS011;67223;51.102;5.882;2023-08-20T02:33:45;4.90;;;3.17;;
78015;SDS011;67223;51.102;5.882;2023-08-20T02:36:11;3.17;;;2.45;;
78015;SDS011;67223;51.102;5.882;2023-08-20T02:38:36;3.13;;;2.57;;
78015;SDS011;67223;51.102;5.882;2023-08-20T02:41:02;3.17;;;2.83;;
78015;SDS011;67223;51.102;5.882;2023-08-20T02:43:30;5.75;;;4.18;;
78015;SDS011;67223;51.102;5.882;2023-08-20T02:45:55;3.00;;;2.70;;
78015;SDS011;67223;51.102;5.882;2023-08-20T02:48:21;3.50;;;3.20;;
78015;SDS011;67223;51.102;5.882;2023-08-20T02:50:51;2.55;;;2.28;;
78015;SDS011;67223;51.102;5.882;2023-08-20T02:53:17;4.70;;;3.10;;
78015;SDS011;67223;51.102;5.882;2023-08-20T02:55:43;4.00;;;2.83;;
78015;SDS011;67223;51.102;5.882;2023-08-20T02:58:08;3.53;;;3.20;;
78015;SDS011;67223;51.102;5.882;2023-08-20T03:00:34;7.10;;;3.10;;
78015;SDS011;67223;51.102;5.882;2023-08-20T03:03:00;6.70;;;3.42;;
78015;SDS011;67223;51.102;5.882;2023-08-20T03:05:27;3.28;;;2.97;;
78015;SDS011;67223;51.102;5.882;2023-08-20T03:07:56;2.77;;;2.57;;
78015;SDS011;67223;51.102;5.882;2023-08-20T03:10:21;2.63;;;2.42;;
78015;SDS011;67223;51.102;5.882;2023-08-20T03:12:51;3.08;;;2.85;;
78015;SDS011;67223;51.102;5.882;2023-08-20T03:15:16;2.37;;;2.13;;
78015;SDS011;67223;51.102;5.882;2023-08-20T03:17:42;4.20;;;2.83;;
78015;SDS011;67223;51.102;5.882;2023-08-20T03:20:07;2.30;;;2.10;;
78015;SDS011;67223;51.102;5.882;2023-08-20T03:22:35;2.58;;;2.33;;
78015;SDS011;67223;51.102;5.882;2023-08-20T03:25:02;2.63;;;2.17;;
78015;SDS011;67223;51.102;5.882;2023-08-20T03:27:27;3.30;;;2.78;;
78015;SDS011;67223;51.102;5.882;2023-08-20T03:29:53;6.53;;;3.40;;
78015;SDS011;67223;51.102;5.882;2023-08-20T03:32:18;2.67;;;2.47;;
78015;SDS011;67223;51.102;5.882;2023-08-20T03:34:44;3.37;;;2.63;;
78015;SDS011;67223;51.102;5.882;2023-08-20T03:37:10;5.35;;;2.47;;
78015;SDS011;67223;51.102;5.882;2023-08-20T03:39:35;3.87;;;2.60;;
78015;SDS011;67223;51.102;5.882;2023-08-20T03:42:01;2.70;;;2.37;;
78015;SDS011;67223;51.102;5.882;2023-08-20T03:44:27;10.30;;;2.92;;
78015;SDS011;67223;51.102;5.882;2023-08-20T03:46:54;2.55;;;2.22;;
78015;SDS011;67223;51.102;5.882;2023-08-20T03:49:20;5.90;;;3.40;;
78015;SDS011;67223;51.102;5.882;2023-08-20T03:51:48;3.83;;;2.20;;
78015;SDS011;67223;51.102;5.882;2023-08-20T03:54:17;2.87;;;2.13;;
78015;SDS011;67223;51.102;5.882;2023-08-20T03:56:42;2.67;;;2.15;;
78015;SDS011;67223;51.102;5.882;2023-08-20T03:59:08;4.37;;;1.87;;
78015;SDS011;67223;51.102;5.882;2023-08-20T04:04:09;2.85;;;2.42;;
78015;SDS011;67223;51.102;5.882;2023-08-20T04:06:37;3.43;;;2.83;;
78015;SDS011;67223;51.102;5.882;2023-08-20T04:09:03;2.92;;;2.63;;
78015;SDS011;67223;51.102;5.882;2023-08-20T04:11:29;2.83;;;2.63;;
78015;SDS011;67223;51.102;5.882;2023-08-20T04:13:54;9.00;;;3.70;;
78015;SDS011;67223;51.102;5.882;2023-08-20T04:16:20;9.27;;;2.93;;
78015;SDS011;67223;51.102;5.882;2023-08-20T04:18:45;4.93;;;2.53;;
78015;SDS011;67223;51.102;5.882;2023-08-20T04:21:10;3.87;;;3.07;;
78015;SDS011;67223;51.102;5.882;2023-08-20T04:23:36;2.67;;;2.42;;
78015;SDS011;67223;51.102;5.882;2023-08-20T04:26:01;4.53;;;3.03;;
78015;SDS011;67223;51.102;5.882;2023-08-20T04:28:27;10.73;;;1.80;;
78015;SDS011;67223;51.102;5.882;2023-08-20T04:30:53;2.28;;;2.08;;
78015;SDS011;67223;51.102;5.882;2023-08-20T04:33:21;3.03;;;2.60;;
78015;SDS011;67223;51.102;5.882;2023-08-20T04:35:48;3.40;;;2.73;;
78015;SDS011;67223;51.102;5.882;2023-08-20T04:38:17;6.00;;;3.28;;
78015;SDS011;67223;51.102;5.882;2023-08-20T04:40:44;15.40;;;3.00;;
78015;SDS011;67223;51.102;5.882;2023-08-20T04:43:11;3.50;;;2.63;;
78015;SDS011;67223;51.102;5.882;2023-08-20T04:45:36;4.37;;;2.10;;
78015;SDS011;67223;51.102;5.882;2023-08-20T04:48:02;4.60;;;2.43;;
78015;SDS011;67223;51.102;5.882;2023-08-20T04:50:27;3.55;;;2.72;;
78015;SDS011;67223;51.102;5.882;2023-08-20T04:52:53;3.33;;;3.03;;
78015;SDS011;67223;51.102;5.882;2023-08-20T04:55:19;3.00;;;2.20;;
78015;SDS011;67223;51.102;5.882;2023-08-20T04:57:45;3.77;;;2.90;;
78015;SDS011;67223;51.102;5.882;2023-08-20T05:00:10;4.10;;;2.87;;
78015;SDS011;67223;51.102;5.882;2023-08-20T05:02:36;4.18;;;3.08;;
78015;SDS011;67223;51.102;5.882;2023-08-20T05:05:02;3.90;;;2.80;;
78015;SDS011;67223;51.102;5.882;2023-08-20T05:07:28;5.93;;;2.85;;
78015;SDS011;67223;51.102;5.882;2023-08-20T05:09:53;2.90;;;2.27;;
78015;SDS011;67223;51.102;5.882;2023-08-20T05:12:19;7.75;;;3.40;;
78015;SDS011;67223;51.102;5.882;2023-08-20T05:14:44;6.47;;;3.40;;
78015;SDS011;67223;51.102;5.882;2023-08-20T05:17:10;2.47;;;2.27;;
78015;SDS011;67223;51.102;5.882;2023-08-20T05:19:35;3.80;;;2.57;;
78015;SDS011;67223;51.102;5.882;2023-08-20T05:22:00;3.70;;;2.65;;
78015;SDS011;67223;51.102;5.882;2023-08-20T05:24:26;5.13;;;2.73;;
78015;SDS011;67223;51.102;5.882;2023-08-20T05:27:08;8.82;;;5.32;;
78015;SDS011;67223;51.102;5.882;2023-08-20T05:29:33;3.37;;;3.03;;
78015;SDS011;67223;51.102;5.882;2023-08-20T05:31:59;2.85;;;2.50;;
78015;SDS011;67223;51.102;5.882;2023-08-20T05:34:24;3.73;;;2.80;;
78015;SDS011;67223;51.102;5.882;2023-08-20T05:36:50;5.93;;;3.00;;
78015;SDS011;67223;51.102;5.882;2023-08-20T05:39:15;2.53;;;2.30;;
78015;SDS011;67223;51.102;5.882;2023-08-20T05:41:41;3.97;;;2.50;;
78015;SDS011;67223;51.102;5.882;2023-08-20T05:44:06;5.47;;;2.73;;
78015;SDS011;67223;51.102;5.882;2023-08-20T05:46:31;2.43;;;2.23;;
78015;SDS011;67223;51.102;5.882;2023-08-20T05:48:57;6.07;;;2.45;;
78015;SDS011;67223;51.102;5.882;2023-08-20T05:51:22;8.30;;;2.07;;
78015;SDS011;67223;51.102;5.882;2023-08-20T05:53:48;2.20;;;2.00;;
78015;SDS011;67223;51.102;5.882;2023-08-20T05:56:13;11.90;;;2.88;;
78015;SDS011;67223;51.102;5.882;2023-08-20T05:58:39;2.33;;;2.13;;
78015;SDS011;67223;51.102;5.882;2023-08-20T06:01:04;10.63;;;3.20;;
78015;SDS011;67223;51.102;5.882;2023-08-20T06:03:30;3.43;;;2.63;;
78015;SDS011;67223;51.102;5.882;2023-08-20T06:05:57;3.70;;;2.35;;
78015;SDS011;67223;51.102;5.882;2023-08-20T06:08:23;2.13;;;2.00;;
78015;SDS011;67223;51.102;5.882;2023-08-20T06:10:48;4.55;;;2.67;;
78015;SDS011;67223;51.102;5.882;2023-08-20T06:13:14;2.50;;;2.30;;
78015;SDS011;67223;51.102;5.882;2023-08-20T06:15:39;4.30;;;2.33;;
78015;SDS011;67223;51.102;5.882;2023-08-20T06:18:04;3.33;;;2.70;;
78015;SDS011;67223;51.102;5.882;2023-08-20T06:20:30;12.90;;;3.30;;
78015;SDS011;67223;51.102;5.882;2023-08-20T06:22:56;1.17;;;1.10;;
78015;SDS011;67223;51.102;5.882;2023-08-20T06:25:21;1.90;;;1.80;;
78015;SDS011;67223;51.102;5.882;2023-08-20T06:27:47;4.23;;;1.27;;
78015;SDS011;67223;51.102;5.882;2023-08-20T06:30:12;2.40;;;2.20;;
78015;SDS011;67223;51.102;5.882;2023-08-20T06:32:37;8.43;;;2.00;;
78015;SDS011;67223;51.102;5.882;2023-08-20T06:35:03;4.37;;;2.47;;
78015;SDS011;67223;51.102;5.882;2023-08-20T06:37:29;3.15;;;2.40;;
78015;SDS011;67223;51.102;5.882;2023-08-20T06:39:54;3.40;;;3.00;;
78015;SDS011;67223;51.102;5.882;2023-08-20T06:42:19;3.93;;;2.73;;
78015;SDS011;67223;51.102;5.882;2023-08-20T06:44:45;2.10;;;1.88;;
78015;SDS011;67223;51.102;5.882;2023-08-20T06:47:10;2.47;;;2.23;;
78015;SDS011;67223;51.102;5.882;2023-08-20T06:49:36;7.00;;;3.72;;
78015;SDS011;67223;51.102;5.882;2023-08-20T06:52:02;2.87;;;2.57;;
78015;SDS011;67223;51.102;5.882;2023-08-20T06:54:28;7.63;;;3.58;;
78015;SDS011;67223;51.102;5.882;2023-08-20T06:56:53;3.23;;;2.83;;
78015;SDS011;67223;51.102;5.882;2023-08-20T06:59:18;8.03;;;2.77;;
78015;SDS011;67223;51.102;5.882;2023-08-20T07:01:44;4.97;;;2.78;;
78015;SDS011;67223;51.102;5.882;2023-08-20T07:04:09;4.40;;;2.80;;
78015;SDS011;67223;51.102;5.882;2023-08-20T07:06:35;3.07;;;2.33;;
78015;SDS011;67223;51.102;5.882;2023-08-20T07:09:00;3.17;;;2.27;;
78015;SDS011;67223;51.102;5.882;2023-08-20T07:11:26;6.23;;;1.33;;
78015;SDS011;67223;51.102;5.882;2023-08-20T07:13:51;6.72;;;1.85;;
78015;SDS011;67223;51.102;5.882;2023-08-20T07:16:17;1.60;;;1.47;;
78015;SDS011;67223;51.102;5.882;2023-08-20T07:18:42;1.83;;;1.43;;
78015;SDS011;67223;51.102;5.882;2023-08-20T07:21:07;2.30;;;2.10;;
78015;SDS011;67223;51.102;5.882;2023-08-20T07:23:33;1.15;;;1.05;;
78015;SDS011;67223;51.102;5.882;2023-08-20T07:26:09;3.23;;;2.10;;
78015;SDS011;67223;51.102;5.882;2023-08-20T07:28:37;5.38;;;3.03;;
78015;SDS011;67223;51.102;5.882;2023-08-20T07:31:21;2.35;;;2.05;;
78015;SDS011;67223;51.102;5.882;2023-08-20T07:33:48;2.00;;;1.83;;
78015;SDS011;67223;51.102;5.882;2023-08-20T07:36:14;2.03;;;1.83;;
78015;SDS011;67223;51.102;5.882;2023-08-20T07:38:41;1.55;;;1.45;;
78015;SDS011;67223;51.102;5.882;2023-08-20T07:41:07;3.20;;;2.10;;
78015;SDS011;67223;51.102;5.882;2023-08-20T07:43:33;3.55;;;2.33;;
78015;SDS011;67223;51.102;5.882;2023-08-20T07:45:59;2.40;;;2.20;;
78015;SDS011;67223;51.102;5.882;2023-08-20T07:48:24;2.83;;;2.30;;
78015;SDS011;67223;51.102;5.882;2023-08-20T07:50:49;5.72;;;3.28;;
78015;SDS011;67223;51.102;5.882;2023-08-20T07:53:15;2.37;;;2.17;;
78015;SDS011;67223;51.102;5.882;2023-08-20T07:55:40;2.30;;;2.10;;
78015;SDS011;67223;51.102;5.882;2023-08-20T07:58:06;3.90;;;2.17;;
78015;SDS011;67223;51.102;5.882;2023-08-20T08:00:31;1.67;;;1.57;;
78015;SDS011;67223;51.102;5.882;2023-08-20T08:02:57;2.05;;;1.85;;
78015;SDS011;67223;51.102;5.882;2023-08-20T08:05:22;0.90;;;0.90;;
78015;SDS011;67223;51.102;5.882;2023-08-20T08:07:48;2.40;;;2.13;;
78015;SDS011;67223;51.102;5.882;2023-08-20T08:10:13;9.85;;;2.45;;
78015;SDS011;67223;51.102;5.882;2023-08-20T08:12:39;14.17;;;2.30;;
78015;SDS011;67223;51.102;5.882;2023-08-20T08:15:04;1.53;;;1.43;;
78015;SDS011;67223;51.102;5.882;2023-08-20T08:17:30;1.40;;;1.30;;
78015;SDS011;67223;51.102;5.882;2023-08-20T08:19:56;2.47;;;2.10;;
78015;SDS011;67223;51.102;5.882;2023-08-20T08:22:22;5.13;;;1.40;;
78015;SDS011;67223;51.102;5.882;2023-08-20T08:24:48;2.27;;;1.53;;
78015;SDS011;67223;51.102;5.882;2023-08-20T08:27:13;1.87;;;1.77;;
78015;SDS011;67223;51.102;5.882;2023-08-20T08:29:38;2.90;;;2.28;;
78015;SDS011;67223;51.102;5.882;2023-08-20T08:32:04;2.50;;;1.53;;
78015;SDS011;67223;51.102;5.882;2023-08-20T08:34:29;2.13;;;1.47;;
78015;SDS011;67223;51.102;5.882;2023-08-20T08:36:55;4.50;;;2.77;;
78015;SDS011;67223;51.102;5.882;2023-08-20T08:39:20;2.65;;;2.45;;
78015;SDS011;67223;51.102;5.882;2023-08-20T08:41:46;4.20;;;2.53;;
78015;SDS011;67223;51.102;5.882;2023-08-20T08:44:15;3.80;;;2.42;;
78015;SDS011;67223;51.102;5.882;2023-08-20T08:46:41;2.03;;;1.87;;
78015;SDS011;67223;51.102;5.882;2023-08-20T08:49:07;1.10;;;1.10;;
78015;SDS011;67223;51.102;5.882;2023-08-20T08:51:33;3.53;;;2.85;;
78015;SDS011;67223;51.102;5.882;2023-08-20T08:54:01;4.88;;;1.50;;
78015;SDS011;67223;51.102;5.882;2023-08-20T08:56:28;1.30;;;1.23;;
78015;SDS011;67223;51.102;5.882;2023-08-20T08:58:53;3.22;;;2.35;;
78015;SDS011;67223;51.102;5.882;2023-08-20T09:01:19;1.50;;;1.40;;
78015;SDS011;67223;51.102;5.882;2023-08-20T09:03:45;2.70;;;1.50;;
78015;SDS011;67223;51.102;5.882;2023-08-20T09:06:12;0.93;;;0.93;;
78015;SDS011;67223;51.102;5.882;2023-08-20T09:08:39;1.45;;;1.33;;
78015;SDS011;67223;51.102;5.882;2023-08-20T09:11:04;1.67;;;1.10;;
78015;SDS011;67223;51.102;5.882;2023-08-20T09:13:36;1.50;;;1.40;;
78015;SDS011;67223;51.102;5.882;2023-08-20T09:16:04;1.25;;;1.15;;
78015;SDS011;67223;51.102;5.882;2023-08-20T09:18:44;2.05;;;1.83;;
78015;SDS011;67223;51.102;5.882;2023-08-20T09:21:11;0.85;;;0.85;;
78015;SDS011;67223;51.102;5.882;2023-08-20T09:23:38;0.97;;;0.97;;
78015;SDS011;67223;51.102;5.882;2023-08-20T09:26:04;3.50;;;1.70;;
78015;SDS011;67223;51.102;5.882;2023-08-20T09:28:42;1.35;;;1.25;;
78015;SDS011;67223;51.102;5.882;2023-08-20T09:31:08;1.80;;;1.67;;
78015;SDS011;67223;51.102;5.882;2023-08-20T09:33:34;1.88;;;1.20;;
78015;SDS011;67223;51.102;5.882;2023-08-20T09:35:59;0.90;;;0.90;;
78015;SDS011;67223;51.102;5.882;2023-08-20T09:38:25;0.70;;;0.70;;
78015;SDS011;67223;51.102;5.882;2023-08-20T09:40:51;2.42;;;1.05;;
78015;SDS011;67223;51.102;5.882;2023-08-20T09:43:18;1.20;;;1.10;;
78015;SDS011;67223;51.102;5.882;2023-08-20T09:45:46;1.97;;;1.77;;
78015;SDS011;67223;51.102;5.882;2023-08-20T09:48:13;4.38;;;2.28;;
78015;SDS011;67223;51.102;5.882;2023-08-20T09:50:43;4.47;;;2.33;;
78015;SDS011;67223;51.102;5.882;2023-08-20T09:53:21;2.33;;;2.13;;
78015;SDS011;67223;51.102;5.882;2023-08-20T09:55:51;0.95;;;0.95;;
78015;SDS011;67223;51.102;5.882;2023-08-20T09:58:20;2.43;;;1.50;;
78015;SDS011;67223;51.102;5.882;2023-08-20T10:00:50;2.47;;;2.28;;
78015;SDS011;67223;51.102;5.882;2023-08-20T10:03:17;2.40;;;2.03;;
78015;SDS011;67223;51.102;5.882;2023-08-20T10:05:46;1.52;;;1.42;;
78015;SDS011;67223;51.102;5.882;2023-08-20T10:08:13;0.90;;;0.90;;
78015;SDS011;67223;51.102;5.882;2023-08-20T10:10:40;2.63;;;2.43;;
78015;SDS011;67223;51.102;5.882;2023-08-20T10:13:05;1.20;;;1.10;;
78015;SDS011;67223;51.102;5.882;2023-08-20T10:15:31;1.73;;;1.37;;
78015;SDS011;67223;51.102;5.882;2023-08-20T10:17:58;2.47;;;2.08;;
78015;SDS011;67223;51.102;5.882;2023-08-20T10:20:23;4.70;;;1.30;;
78015;SDS011;67223;51.102;5.882;2023-08-20T10:22:54;1.70;;;1.60;;
78015;SDS011;67223;51.102;5.882;2023-08-20T10:25:25;7.32;;;1.73;;
78015;SDS011;67223;51.102;5.882;2023-08-20T10:27:51;1.63;;;1.30;;
78015;SDS011;67223;51.102;5.882;2023-08-20T10:30:18;0.70;;;0.70;;
78015;SDS011;67223;51.102;5.882;2023-08-20T10:32:49;10.48;;;2.60;;
78015;SDS011;67223;51.102;5.882;2023-08-20T10:35:26;1.85;;;1.27;;
78015;SDS011;67223;51.102;5.882;2023-08-20T10:38:03;1.17;;;1.13;;
78015;SDS011;67223;51.102;5.882;2023-08-20T10:41:03;1.40;;;1.23;;
78015;SDS011;67223;51.102;5.882;2023-08-20T10:48:49;1.98;;;1.52;;
78015;SDS011;67223;51.102;5.882;2023-08-20T10:53:42;0.97;;;0.97;;
78015;SDS011;67223;51.102;5.882;2023-08-20T10:56:14;2.53;;;1.25;;
78015;SDS011;67223;51.102;5.882;2023-08-20T10:58:41;1.17;;;1.10;;
78015;SDS011;67223;51.102;5.882;2023-08-20T11:01:18;1.98;;;1.25;;
78015;SDS011;67223;51.102;5.882;2023-08-20T11:03:45;4.10;;;1.65;;
78015;SDS011;67223;51.102;5.882;2023-08-20T11:06:13;1.02;;;1.02;;
78015;SDS011;67223;51.102;5.882;2023-08-20T11:08:39;1.50;;;1.37;;
78015;SDS011;67223;51.102;5.882;2023-08-20T11:11:05;1.58;;;1.35;;
78015;SDS011;67223;51.102;5.882;2023-08-20T11:13:32;1.35;;;1.25;;
78015;SDS011;67223;51.102;5.882;2023-08-20T11:15:58;0.82;;;0.82;;
78015;SDS011;67223;51.102;5.882;2023-08-20T11:18:24;1.50;;;1.40;;
78015;SDS011;67223;51.102;5.882;2023-08-20T11:20:50;1.30;;;1.20;;
78015;SDS011;67223;51.102;5.882;2023-08-20T11:23:16;1.10;;;1.10;;
78015;SDS011;67223;51.102;5.882;2023-08-20T11:25:42;2.25;;;1.25;;
78015;SDS011;67223;51.102;5.882;2023-08-20T11:28:08;0.85;;;0.85;;
78015;SDS011;67223;51.102;5.882;2023-08-20T11:30:33;1.03;;;0.90;;
78015;SDS011;67223;51.102;5.882;2023-08-20T11:32:59;2.10;;;1.77;;
78015;SDS011;67223;51.102;5.882;2023-08-20T11:35:25;2.40;;;1.47;;
78015;SDS011;67223;51.102;5.882;2023-08-20T11:37:51;0.98;;;0.98;;
78015;SDS011;67223;51.102;5.882;2023-08-20T11:40:21;1.08;;;1.08;;
78015;SDS011;67223;51.102;5.882;2023-08-20T11:42:46;1.33;;;1.23;;
78015;SDS011;67223;51.102;5.882;2023-08-20T11:45:13;5.10;;;1.73;;
78015;SDS011;67223;51.102;5.882;2023-08-20T11:47:39;3.15;;;1.35;;
78015;SDS011;67223;51.102;5.882;2023-08-20T11:50:05;1.90;;;1.67;;
78015;SDS011;67223;51.102;5.882;2023-08-20T11:52:32;1.13;;;1.07;;
78015;SDS011;67223;51.102;5.882;2023-08-20T11:54:58;1.13;;;1.13;;
78015;SDS011;67223;51.102;5.882;2023-08-20T11:57:25;1.50;;;1.40;;
78015;SDS011;67223;51.102;5.882;2023-08-20T11:59:50;1.27;;;1.17;;
78015;SDS011;67223;51.102;5.882;2023-08-20T12:02:23;1.10;;;1.10;;
78015;SDS011;67223;51.102;5.882;2023-08-20T12:04:50;1.57;;;1.47;;
78015;SDS011;67223;51.102;5.882;2023-08-20T12:07:16;1.05;;;1.05;;
78015;SDS011;67223;51.102;5.882;2023-08-20T12:09:41;0.80;;;0.80;;
78015;SDS011;67223;51.102;5.882;2023-08-20T12:12:07;0.70;;;0.70;;
78015;SDS011;67223;51.102;5.882;2023-08-20T12:14:36;1.00;;;1.00;;
78015;SDS011;67223;51.102;5.882;2023-08-20T12:17:01;1.88;;;1.00;;
78015;SDS011;67223;51.102;5.882;2023-08-20T12:19:28;1.27;;;1.13;;
78015;SDS011;67223;51.102;5.882;2023-08-20T12:21:53;4.43;;;1.50;;
78015;SDS011;67223;51.102;5.882;2023-08-20T12:24:19;0.77;;;0.77;;
78015;SDS011;67223;51.102;5.882;2023-08-20T12:26:45;2.97;;;1.45;;
78015;SDS011;67223;51.102;5.882;2023-08-20T12:29:11;0.80;;;0.80;;
78015;SDS011;67223;51.102;5.882;2023-08-20T12:31:37;1.00;;;1.00;;
78015;SDS011;67223;51.102;5.882;2023-08-20T12:34:03;1.23;;;1.13;;
78015;SDS011;67223;51.102;5.882;2023-08-20T12:36:28;1.20;;;1.10;;
78015;SDS011;67223;51.102;5.882;2023-08-20T12:38:54;1.30;;;1.20;;
78015;SDS011;67223;51.102;5.882;2023-08-20T12:41:20;1.05;;;1.00;;
78015;SDS011;67223;51.102;5.882;2023-08-20T12:43:46;1.37;;;1.03;;
78015;SDS011;67223;51.102;5.882;2023-08-20T12:46:11;0.60;;;0.60;;
78015;SDS011;67223;51.102;5.882;2023-08-20T12:48:38;1.17;;;1.07;;
78015;SDS011;67223;51.102;5.882;2023-08-20T12:51:04;1.73;;;1.20;;
78015;SDS011;67223;51.102;5.882;2023-08-20T12:53:30;0.83;;;0.83;;
78015;SDS011;67223;51.102;5.882;2023-08-20T12:55:57;0.77;;;0.77;;
78015;SDS011;67223;51.102;5.882;2023-08-20T12:58:22;1.83;;;1.50;;
78015;SDS011;67223;51.102;5.882;2023-08-20T13:00:48;0.98;;;0.98;;
78015;SDS011;67223;51.102;5.882;2023-08-20T13:03:14;2.58;;;1.63;;
78015;SDS011;67223;51.102;5.882;2023-08-20T13:05:40;2.73;;;1.30;;
78015;SDS011;67223;51.102;5.882;2023-08-20T13:08:06;5.72;;;1.08;;
78015;SDS011;67223;51.102;5.882;2023-08-20T13:10:32;1.50;;;0.90;;
78015;SDS011;67223;51.102;5.882;2023-08-20T13:13:00;1.33;;;1.10;;
78015;SDS011;67223;51.102;5.882;2023-08-20T13:15:26;1.00;;;1.00;;
78015;SDS011;67223;51.102;5.882;2023-08-20T13:17:52;0.82;;;0.82;;
78015;SDS011;67223;51.102;5.882;2023-08-20T13:20:18;1.37;;;1.27;;
78015;SDS011;67223;51.102;5.882;2023-08-20T13:22:49;1.17;;;1.08;;
78015;SDS011;67223;51.102;5.882;2023-08-20T13:25:15;1.33;;;1.23;;
78015;SDS011;67223;51.102;5.882;2023-08-20T13:27:40;1.10;;;1.05;;
78015;SDS011;67223;51.102;5.882;2023-08-20T13:30:06;0.87;;;0.83;;
78015;SDS011;67223;51.102;5.882;2023-08-20T13:32:33;4.20;;;1.45;;
78015;SDS011;67223;51.102;5.882;2023-08-20T13:34:59;0.70;;;0.70;;
78015;SDS011;67223;51.102;5.882;2023-08-20T13:37:24;0.87;;;0.87;;
78015;SDS011;67223;51.102;5.882;2023-08-20T13:39:50;0.75;;;0.75;;
78015;SDS011;67223;51.102;5.882;2023-08-20T13:42:16;0.90;;;0.90;;
78015;SDS011;67223;51.102;5.882;2023-08-20T13:44:41;1.63;;;1.33;;
78015;SDS011;67223;51.102;5.882;2023-08-20T13:47:07;1.87;;;1.33;;
78015;SDS011;67223;51.102;5.882;2023-08-20T13:49:33;1.13;;;1.03;;
78015;SDS011;67223;51.102;5.882;2023-08-20T13:51:58;0.93;;;0.90;;
78015;SDS011;67223;51.102;5.882;2023-08-20T13:54:24;0.73;;;0.73;;
78015;SDS011;67223;51.102;5.882;2023-08-20T13:56:49;0.90;;;0.90;;
78015;SDS011;67223;51.102;5.882;2023-08-20T13:59:14;0.87;;;0.87;;
78015;SDS011;67223;51.102;5.882;2023-08-20T14:01:40;0.85;;;0.85;;
78015;SDS011;67223;51.102;5.882;2023-08-20T14:04:05;0.80;;;0.80;;
78015;SDS011;67223;51.102;5.882;2023-08-20T14:06:31;1.57;;;1.10;;
78015;SDS011;67223;51.102;5.882;2023-08-20T14:08:56;6.43;;;1.10;;
78015;SDS011;67223;51.102;5.882;2023-08-20T14:11:22;0.65;;;0.65;;
78015;SDS011;67223;51.102;5.882;2023-08-20T14:13:47;2.63;;;1.40;;
78015;SDS011;67223;51.102;5.882;2023-08-20T14:16:13;1.27;;;1.17;;
78015;SDS011;67223;51.102;5.882;2023-08-20T14:18:39;1.20;;;1.10;;
78015;SDS011;67223;51.102;5.882;2023-08-20T14:21:04;1.00;;;1.00;;
78015;SDS011;67223;51.102;5.882;2023-08-20T14:23:30;1.42;;;0.90;;
78015;SDS011;67223;51.102;5.882;2023-08-20T14:25:56;1.13;;;1.10;;
78015;SDS011;67223;51.102;5.882;2023-08-20T14:28:21;1.50;;;1.10;;
78015;SDS011;67223;51.102;5.882;2023-08-20T14:30:48;0.80;;;0.80;;
78015;SDS011;67223;51.102;5.882;2023-08-20T14:33:15;0.98;;;0.98;;
78015;SDS011;67223;51.102;5.882;2023-08-20T14:35:40;0.97;;;0.93;;
78015;SDS011;67223;51.102;5.882;2023-08-20T14:38:06;2.33;;;1.30;;
78015;SDS011;67223;51.102;5.882;2023-08-20T14:40:36;2.22;;;1.52;;
78015;SDS011;67223;51.102;5.882;2023-08-20T14:43:04;1.25;;;0.90;;
78015;SDS011;67223;51.102;5.882;2023-08-20T14:45:29;0.77;;;0.77;;
78015;SDS011;67223;51.102;5.882;2023-08-20T14:47:55;0.90;;;0.90;;
78015;SDS011;67223;51.102;5.882;2023-08-20T14:50:20;0.90;;;0.90;;
78015;SDS011;67223;51.102;5.882;2023-08-20T14:52:45;1.90;;;1.00;;
78015;SDS011;67223;51.102;5.882;2023-08-20T14:55:16;1.20;;;1.10;;
78015;SDS011;67223;51.102;5.882;2023-08-20T14:57:42;1.35;;;1.25;;
78015;SDS011;67223;51.102;5.882;2023-08-20T15:00:08;1.93;;;1.30;;